Clare Christine — V2DT7 — position and weather

sailwx.info

Track history (hours):
 
Tides and Currents Weather Stations Pressure Air Temp Water Temp Dewpoint Dewpoint Depression Visibility Wind Speed Wind Dir Waves Ship Positions

Clare Christine

Last reported at 2016-Feb-07 12:28 UTC. Time now 2016-Feb-07 13:11 UTC.
Position N 54°37' W 005°55'.

Length 89 m; draft 5.4 m.

Type: Cargo ship. MMSI: 305379000.

Date/timePositionNaut miles runAvg speedWind from/ knotsBaromVisibWave heightAir tempDewpointWater temp
2016-Feb-07 12:28N 54°37' W 005°55'0 0.0
2016-Feb-07 11:28N 54°37' W 005°55'0 0.0
2016-Feb-07 10:31N 54°37' W 005°55'0 0.0
2016-Feb-07 09:31N 54°37' W 005°55'0 0.0
2016-Feb-07 08:31N 54°37' W 005°55'0 0.0
2016-Feb-07 07:31N 54°37' W 005°55'0 0.0
2016-Feb-07 06:31N 54°37' W 005°55'0 0.0
2016-Feb-07 05:31N 54°37' W 005°55'0 0.0
2016-Feb-07 04:31N 54°37' W 005°55'0 0.0
2016-Feb-07 03:31N 54°37' W 005°55'0 0.0
2016-Feb-07 02:31N 54°37' W 005°55'0 0.0
2016-Feb-07 01:28N 54°37' W 005°55'0 0.0
2016-Feb-07 00:31N 54°37' W 005°55'0 0.0
2016-Feb-06 23:31N 54°37' W 005°55'0 0.0
2016-Feb-06 22:31N 54°37' W 005°55'0 0.0
2016-Feb-06 21:31N 54°37' W 005°55'0 0.0
2016-Feb-06 20:31N 54°37' W 005°55'0 0.0
2016-Feb-06 19:31N 54°37' W 005°55'0 0.0
2016-Feb-06 18:31N 54°37' W 005°55'0 0.0
2016-Feb-06 17:31N 54°37' W 005°55'0 0.0
2016-Feb-06 16:31N 54°37' W 005°55'0 0.0
2016-Feb-06 15:22N 54°37' W 005°55'0 0.0
2016-Feb-06 14:31N 54°37' W 005°55'0 0.0
2016-Feb-06 13:28N 54°37' W 005°55'0 0.0
2016-Feb-06 12:31N 54°37' W 005°55'0 0.0
2016-Feb-06 11:31N 54°37' W 005°55'0 0.0
2016-Feb-06 10:31N 54°37' W 005°55'0 0.0
2016-Feb-06 09:28N 54°37' W 005°55'0 0.0
2016-Feb-06 08:28N 54°37' W 005°55'0 0.0
2016-Feb-06 07:33N 54°37' W 005°55'0 0.0
2016-Feb-06 06:33N 54°37' W 005°55'0 0.0
2016-Feb-06 05:33N 54°37' W 005°55'0 0.0
2016-Feb-06 04:33N 54°37' W 005°55'0 0.0
2016-Feb-06 03:33N 54°37' W 005°55'0 0.0
2016-Feb-06 02:33N 54°37' W 005°55'0 0.0
2016-Feb-06 01:33N 54°37' W 005°55'0 0.0
2016-Feb-06 00:33N 54°37' W 005°55'0 0.0
2016-Feb-05 23:33N 54°37' W 005°55'0 0.0
2016-Feb-05 22:33N 54°37' W 005°55'0 0.0
2016-Feb-05 21:33N 54°37' W 005°55'0 0.0
2016-Feb-05 20:33N 54°37' W 005°55'0 0.0
2016-Feb-05 19:33N 54°37' W 005°55'1 0.7
2016-Feb-05 18:33N 54°37' W 005°54'0 0.2
2016-Feb-05 17:33N 54°37' W 005°54'0 0.0
2016-Feb-05 16:31N 54°37' W 005°54'0 0.0
2016-Feb-05 15:33N 54°37' W 005°54'0 0.0
2016-Feb-05 14:33N 54°37' W 005°54'0 0.0
2016-Feb-05 13:32N 54°37' W 005°54'0 0.0
2016-Feb-05 12:33N 54°37' W 005°54'0 0.0
2016-Feb-05 11:33N 54°37' W 005°54'0 0.0
2016-Feb-05 10:33N 54°37' W 005°54'0 0.0
2016-Feb-05 09:33N 54°37' W 005°54'0 0.0
2016-Feb-05 08:33N 54°37' W 005°54'0 0.0
2016-Feb-05 07:33N 54°37' W 005°54'0 0.0
2016-Feb-05 06:33N 54°37' W 005°54'0 0.0
2016-Feb-05 05:33N 54°37' W 005°54'0 0.0
2016-Feb-05 04:33N 54°37' W 005°54'2 2.2
2016-Feb-05 03:33N 54°39' W 005°52'10 9.8
2016-Feb-05 02:33N 54°44' W 005°37'5 5.1
2016-Feb-05 01:33N 54°47' W 005°31'1 1.1
2016-Feb-05 00:33N 54°46' W 005°31'4 3.5
2016-Feb-04 23:33N 54°43' W 005°29'1211.7
2016-Feb-04 22:33N 54°32' W 005°22'1111.2
2016-Feb-04 21:33N 54°21' W 005°18'1111.0
2016-Feb-04 20:33N 54°10' W 005°19'246 6.6
2016-Feb-03 07:33N 50°14' W 003°29'9 9.5
2016-Feb-03 06:33N 50°23' W 003°22'5 5.3
2016-Feb-03 05:32N 50°25' W 003°30'0 0.0
2016-Feb-03 04:32N 50°25' W 003°30'0 0.0
2016-Feb-03 03:32N 50°25' W 003°30'0 0.0
2016-Feb-03 02:32N 50°25' W 003°30'0 0.0
2016-Feb-03 01:32N 50°25' W 003°30'0 0.0
2016-Feb-03 00:32N 50°25' W 003°30'0 0.0
2016-Feb-02 23:32N 50°25' W 003°30'0 0.0
2016-Feb-02 22:32N 50°25' W 003°30'0 0.0
2016-Feb-02 21:32N 50°25' W 003°30'0 0.0
2016-Feb-02 20:32N 50°25' W 003°30'0 0.0
2016-Feb-02 19:32N 50°25' W 003°30'0 0.0
2016-Feb-02 18:29N 50°25' W 003°30'0 0.0
2016-Feb-02 17:32N 50°25' W 003°30'0 0.0
2016-Feb-02 16:32N 50°25' W 003°30'0 0.0
2016-Feb-02 15:29N 50°25' W 003°30'0 0.0
2016-Feb-02 14:32N 50°25' W 003°30'0 0.0
2016-Feb-02 13:32N 50°25' W 003°30'0 0.0
2016-Feb-02 12:32N 50°25' W 003°30'0 0.0
2016-Feb-02 11:32N 50°25' W 003°30'0 0.0
2016-Feb-02 10:32N 50°25' W 003°30'0 0.0
2016-Feb-02 09:34N 50°25' W 003°30'0 0.0
2016-Feb-02 08:33N 50°25' W 003°30'0 0.0
2016-Feb-02 07:33N 50°25' W 003°30'0 0.0
2016-Feb-02 06:33N 50°25' W 003°30'0 0.0
2016-Feb-02 05:33N 50°25' W 003°30'0 0.0
2016-Feb-02 04:34N 50°25' W 003°30'0 0.0
2016-Feb-02 03:33N 50°25' W 003°30'0 0.0
2016-Feb-02 02:34N 50°25' W 003°30'0 0.0
2016-Feb-02 01:34N 50°25' W 003°30'0 0.0
2016-Feb-02 00:33N 50°25' W 003°30'0 0.0
2016-Feb-01 23:33N 50°25' W 003°30'0 0.0
2016-Feb-01 22:34N 50°25' W 003°30'0 0.0
2016-Feb-01 21:33N 50°25' W 003°30'0 0.0
2016-Feb-01 20:33N 50°25' W 003°30'0 0.0
2016-Feb-01 19:33N 50°25' W 003°30'0 0.0
2016-Feb-01 18:33N 50°25' W 003°30'0 0.0
2016-Feb-01 17:33N 50°25' W 003°30'0 0.0
2016-Feb-01 16:33N 50°25' W 003°30'0 0.0
2016-Feb-01 15:33N 50°25' W 003°30'0 0.0
2016-Feb-01 14:33N 50°25' W 003°30'0 0.0
2016-Feb-01 13:33N 50°25' W 003°30'0 0.0
2016-Feb-01 12:33N 50°25' W 003°30'0 0.0
2016-Feb-01 11:33N 50°25' W 003°30'0 0.0
2016-Feb-01 10:33N 50°25' W 003°30'0 0.0
2016-Feb-01 09:33N 50°25' W 003°30'0 0.0
2016-Feb-01 08:33N 50°25' W 003°30'0 0.0
2016-Feb-01 07:33N 50°25' W 003°30'0 0.0
2016-Feb-01 06:33N 50°25' W 003°30'0 0.0
2016-Feb-01 05:33N 50°25' W 003°30'0 0.0
2016-Feb-01 04:33N 50°25' W 003°30'0 0.0
2016-Feb-01 03:33N 50°25' W 003°30'0 0.0
2016-Feb-01 02:33N 50°25' W 003°30'0 0.0
2016-Feb-01 01:33N 50°25' W 003°30'0 0.0
2016-Feb-01 00:33N 50°25' W 003°30'0 0.0
2016-Jan-31 23:34N 50°25' W 003°30'0 0.0
2016-Jan-31 22:33N 50°25' W 003°30'0 0.0
2016-Jan-31 21:33N 50°25' W 003°30'0 0.0
2016-Jan-31 20:33N 50°25' W 003°30'0 0.0
2016-Jan-31 19:33N 50°25' W 003°30'0 0.0
2016-Jan-31 18:33N 50°25' W 003°30'0 0.5
2016-Jan-31 17:33N 50°25' W 003°30'9 8.5
2016-Jan-31 16:33N 50°26' W 003°16'9 8.8
2016-Jan-31 15:33N 50°26' W 003°02'41 6.8
2016-Jan-31 09:33N 50°29' W 001°58'10 9.5
2016-Jan-31 08:31N 50°29' W 001°43'1410.9
2016-Jan-31 07:17N 50°28' W 001°22'911.8
2016-Jan-31 06:31N 50°27' W 001°08'1212.0
2016-Jan-31 05:33N 50°28' W 000°50'1210.9
2016-Jan-31 04:29N 50°29' W 000°31'18 9.1
2016-Jan-31 02:33N 50°32' W 000°04'7 7.1
2016-Jan-31 01:33N 50°33' E 000°07'6 6.2
2016-Jan-31 00:33N 50°35' E 000°16'6 6.3
2016-Jan-30 23:33N 50°37' E 000°26'7 6.8
2016-Jan-30 22:33N 50°40' E 000°36'9 9.1
2016-Jan-30 21:33N 50°45' E 000°47'1110.2
2016-Jan-30 20:26N 50°51' E 001°02'9 9.9
2016-Jan-30 19:33N 50°57' E 001°13'9 9.2
2016-Jan-30 18:33N 51°03' E 001°24'8 8.4
2016-Jan-30 17:33N 51°08' E 001°34'7 7.5
2016-Jan-30 16:33N 51°13' E 001°44'7 7.0
2016-Jan-30 15:33N 51°18' E 001°50'7 7.5
2016-Jan-30 14:33N 51°25' E 001°56'9 9.3
2016-Jan-30 13:33N 51°33' E 002°05'1110.9
2016-Jan-30 12:33N 51°43' E 002°12'20 9.9
2016-Jan-30 10:34N 52°02' E 002°09'2 2.4
2016-Jan-30 09:33N 52°04' E 002°07'2 2.3
2016-Jan-30 08:33N 52°04' E 002°10'8 8.0
2016-Jan-30 07:33N 52°10' E 002°03'8 7.7
2016-Jan-30 06:33N 52°17' E 001°56'7 6.6
2016-Jan-30 05:33N 52°22' E 001°50'5 4.7
2016-Jan-30 04:33N 52°27' E 001°52'5 5.0
2016-Jan-30 03:34N 52°32' E 001°53'6 5.5
2016-Jan-30 02:33N 52°37' E 001°56'1 0.9
2016-Jan-30 01:34N 52°36' E 001°55'7 6.7
2016-Jan-30 00:33N 52°29' E 001°53'6 6.3
2016-Jan-29 23:33N 52°23' E 001°50'7 6.9
2016-Jan-29 22:33N 52°16' E 001°52'7 7.4
2016-Jan-29 21:34N 52°10' E 001°57'9 8.6
2016-Jan-29 20:33N 52°03' E 002°06'20 9.1
2016-Jan-29 18:23N 51°44' E 002°01'910.9
2016-Jan-29 17:34N 51°38' E 001°50'1010.0
2016-Jan-29 16:34N 51°32' E 001°38'7 6.9
2016-Jan-29 15:33N 51°27' E 001°30'4 3.7
2016-Jan-29 14:33N 51°25' E 001°24'1 1.0
2016-Jan-29 13:33N 51°25' E 001°23'0 0.3
2016-Jan-29 12:34N 51°25' E 001°24'0 0.3
2016-Jan-29 11:34N 51°25' E 001°24'0 0.1
2016-Jan-29 10:33N 51°25' E 001°24'0 0.0
2016-Jan-29 09:33N 51°25' E 001°24'0 0.0
2016-Jan-29 08:33N 51°25' E 001°24'0 0.0
2016-Jan-29 07:33N 51°25' E 001°24'0 0.0
2016-Jan-29 06:33N 51°25' E 001°24'0 0.0
2016-Jan-29 05:33N 51°25' E 001°24'0 0.0
2016-Jan-29 04:33N 51°25' E 001°24'0 0.0
2016-Jan-29 03:33N 51°25' E 001°24'0 0.2
2016-Jan-29 02:33N 51°25' E 001°24'0 0.0
2016-Jan-29 01:33N 51°25' E 001°24'0 0.0
2016-Jan-29 00:33N 51°25' E 001°24'0 0.2
2016-Jan-28 23:33N 51°25' E 001°24'0 0.0
2016-Jan-28 22:33N 51°25' E 001°24'0 0.0
2016-Jan-28 21:33N 51°25' E 001°24'0 0.0
2016-Jan-28 20:33N 51°25' E 001°24'0 0.0
2016-Jan-28 19:33N 51°25' E 001°24'0 0.0
2016-Jan-28 18:33N 51°25' E 001°24'0 0.0
2016-Jan-28 17:34N 51°25' E 001°24'0 0.0
2016-Jan-28 16:33N 51°25' E 001°24'0 0.0
2016-Jan-28 15:31N 51°25' E 001°24'0 0.2
2016-Jan-28 14:33N 51°25' E 001°24'0 0.0
2016-Jan-28 13:33N 51°25' E 001°24'0 0.0
2016-Jan-28 12:33N 51°25' E 001°24'  
Track history (hours):
 
Tides and Currents Weather Stations Pressure Air Temp Water Temp Dewpoint Dewpoint Depression Visibility Wind Speed Wind Dir Waves Ship Positions

Clare Christine

Last reported at 2016-Feb-07 12:28 UTC. Time now 2016-Feb-07 13:11 UTC.
Position N 54°37' W 005°55'.

Length 89 m; draft 5.4 m.

Type: Cargo ship. MMSI: 305379000.

Date/timePositionNaut miles runAvg speedWind from/ knotsBaromVisibWave heightAir tempDewpointWater temp
2016-Feb-07 12:28N 54°37' W 005°55'0 0.0
2016-Feb-07 11:28N 54°37' W 005°55'0 0.0
2016-Feb-07 10:31N 54°37' W 005°55'0 0.0
2016-Feb-07 09:31N 54°37' W 005°55'0 0.0
2016-Feb-07 08:31N 54°37' W 005°55'0 0.0
2016-Feb-07 07:31N 54°37' W 005°55'0 0.0
2016-Feb-07 06:31N 54°37' W 005°55'0 0.0
2016-Feb-07 05:31N 54°37' W 005°55'0 0.0
2016-Feb-07 04:31N 54°37' W 005°55'0 0.0
2016-Feb-07 03:31N 54°37' W 005°55'0 0.0
2016-Feb-07 02:31N 54°37' W 005°55'0 0.0
2016-Feb-07 01:28N 54°37' W 005°55'0 0.0
2016-Feb-07 00:31N 54°37' W 005°55'0 0.0
2016-Feb-06 23:31N 54°37' W 005°55'0 0.0
2016-Feb-06 22:31N 54°37' W 005°55'0 0.0
2016-Feb-06 21:31N 54°37' W 005°55'0 0.0
2016-Feb-06 20:31N 54°37' W 005°55'0 0.0
2016-Feb-06 19:31N 54°37' W 005°55'0 0.0
2016-Feb-06 18:31N 54°37' W 005°55'0 0.0
2016-Feb-06 17:31N 54°37' W 005°55'0 0.0
2016-Feb-06 16:31N 54°37' W 005°55'0 0.0
2016-Feb-06 15:22N 54°37' W 005°55'0 0.0
2016-Feb-06 14:31N 54°37' W 005°55'0 0.0
2016-Feb-06 13:28N 54°37' W 005°55'0 0.0
2016-Feb-06 12:31N 54°37' W 005°55'0 0.0
2016-Feb-06 11:31N 54°37' W 005°55'0 0.0
2016-Feb-06 10:31N 54°37' W 005°55'0 0.0
2016-Feb-06 09:28N 54°37' W 005°55'0 0.0
2016-Feb-06 08:28N 54°37' W 005°55'0 0.0
2016-Feb-06 07:33N 54°37' W 005°55'0 0.0
2016-Feb-06 06:33N 54°37' W 005°55'0 0.0
2016-Feb-06 05:33N 54°37' W 005°55'0 0.0
2016-Feb-06 04:33N 54°37' W 005°55'0 0.0
2016-Feb-06 03:33N 54°37' W 005°55'0 0.0
2016-Feb-06 02:33N 54°37' W 005°55'0 0.0
2016-Feb-06 01:33N 54°37' W 005°55'0 0.0
2016-Feb-06 00:33N 54°37' W 005°55'0 0.0
2016-Feb-05 23:33N 54°37' W 005°55'0 0.0
2016-Feb-05 22:33N 54°37' W 005°55'0 0.0
2016-Feb-05 21:33N 54°37' W 005°55'0 0.0
2016-Feb-05 20:33N 54°37' W 005°55'0 0.0
2016-Feb-05 19:33N 54°37' W 005°55'1 0.7
2016-Feb-05 18:33N 54°37' W 005°54'0 0.2
2016-Feb-05 17:33N 54°37' W 005°54'0 0.0
2016-Feb-05 16:31N 54°37' W 005°54'0 0.0
2016-Feb-05 15:33N 54°37' W 005°54'0 0.0
2016-Feb-05 14:33N 54°37' W 005°54'0 0.0
2016-Feb-05 13:32N 54°37' W 005°54'0 0.0
2016-Feb-05 12:33N 54°37' W 005°54'0 0.0
2016-Feb-05 11:33N 54°37' W 005°54'0 0.0
2016-Feb-05 10:33N 54°37' W 005°54'0 0.0
2016-Feb-05 09:33N 54°37' W 005°54'0 0.0
2016-Feb-05 08:33N 54°37' W 005°54'0 0.0
2016-Feb-05 07:33N 54°37' W 005°54'0 0.0
2016-Feb-05 06:33N 54°37' W 005°54'0 0.0
2016-Feb-05 05:33N 54°37' W 005°54'0 0.0
2016-Feb-05 04:33N 54°37' W 005°54'2 2.2
2016-Feb-05 03:33N 54°39' W 005°52'10 9.8
2016-Feb-05 02:33N 54°44' W 005°37'5 5.1
2016-Feb-05 01:33N 54°47' W 005°31'1 1.1
2016-Feb-05 00:33N 54°46' W 005°31'4 3.5
2016-Feb-04 23:33N 54°43' W 005°29'1211.7
2016-Feb-04 22:33N 54°32' W 005°22'1111.2
2016-Feb-04 21:33N 54°21' W 005°18'1111.0
2016-Feb-04 20:33N 54°10' W 005°19'246 6.6
2016-Feb-03 07:33N 50°14' W 003°29'9 9.5
2016-Feb-03 06:33N 50°23' W 003°22'5 5.3
2016-Feb-03 05:32N 50°25' W 003°30'0 0.0
2016-Feb-03 04:32N 50°25' W 003°30'0 0.0
2016-Feb-03 03:32N 50°25' W 003°30'0 0.0
2016-Feb-03 02:32N 50°25' W 003°30'0 0.0
2016-Feb-03 01:32N 50°25' W 003°30'0 0.0
2016-Feb-03 00:32N 50°25' W 003°30'0 0.0
2016-Feb-02 23:32N 50°25' W 003°30'0 0.0
2016-Feb-02 22:32N 50°25' W 003°30'0 0.0
2016-Feb-02 21:32N 50°25' W 003°30'0 0.0
2016-Feb-02 20:32N 50°25' W 003°30'0 0.0
2016-Feb-02 19:32N 50°25' W 003°30'0 0.0
2016-Feb-02 18:29N 50°25' W 003°30'0 0.0
2016-Feb-02 17:32N 50°25' W 003°30'0 0.0
2016-Feb-02 16:32N 50°25' W 003°30'0 0.0
2016-Feb-02 15:29N 50°25' W 003°30'0 0.0
2016-Feb-02 14:32N 50°25' W 003°30'0 0.0
2016-Feb-02 13:32N 50°25' W 003°30'0 0.0
2016-Feb-02 12:32N 50°25' W 003°30'0 0.0
2016-Feb-02 11:32N 50°25' W 003°30'0 0.0
2016-Feb-02 10:32N 50°25' W 003°30'0 0.0
2016-Feb-02 09:34N 50°25' W 003°30'0 0.0
2016-Feb-02 08:33N 50°25' W 003°30'0 0.0
2016-Feb-02 07:33N 50°25' W 003°30'0 0.0
2016-Feb-02 06:33N 50°25' W 003°30'0 0.0
2016-Feb-02 05:33N 50°25' W 003°30'0 0.0
2016-Feb-02 04:34N 50°25' W 003°30'0 0.0
2016-Feb-02 03:33N 50°25' W 003°30'0 0.0
2016-Feb-02 02:34N 50°25' W 003°30'0 0.0
2016-Feb-02 01:34N 50°25' W 003°30'0 0.0
2016-Feb-02 00:33N 50°25' W 003°30'0 0.0
2016-Feb-01 23:33N 50°25' W 003°30'0 0.0
2016-Feb-01 22:34N 50°25' W 003°30'0 0.0
2016-Feb-01 21:33N 50°25' W 003°30'0 0.0
2016-Feb-01 20:33N 50°25' W 003°30'0 0.0
2016-Feb-01 19:33N 50°25' W 003°30'0 0.0
2016-Feb-01 18:33N 50°25' W 003°30'0 0.0
2016-Feb-01 17:33N 50°25' W 003°30'0 0.0
2016-Feb-01 16:33N 50°25' W 003°30'0 0.0
2016-Feb-01 15:33N 50°25' W 003°30'0 0.0
2016-Feb-01 14:33N 50°25' W 003°30'0 0.0
2016-Feb-01 13:33N 50°25' W 003°30'0 0.0
2016-Feb-01 12:33N 50°25' W 003°30'0 0.0
2016-Feb-01 11:33N 50°25' W 003°30'0 0.0
2016-Feb-01 10:33N 50°25' W 003°30'0 0.0
2016-Feb-01 09:33N 50°25' W 003°30'0 0.0
2016-Feb-01 08:33N 50°25' W 003°30'0 0.0
2016-Feb-01 07:33N 50°25' W 003°30'0 0.0
2016-Feb-01 06:33N 50°25' W 003°30'0 0.0
2016-Feb-01 05:33N 50°25' W 003°30'0 0.0
2016-Feb-01 04:33N 50°25' W 003°30'0 0.0
2016-Feb-01 03:33N 50°25' W 003°30'0 0.0
2016-Feb-01 02:33N 50°25' W 003°30'0 0.0
2016-Feb-01 01:33N 50°25' W 003°30'0 0.0
2016-Feb-01 00:33N 50°25' W 003°30'0 0.0
2016-Jan-31 23:34N 50°25' W 003°30'0 0.0
2016-Jan-31 22:33N 50°25' W 003°30'0 0.0
2016-Jan-31 21:33N 50°25' W 003°30'0 0.0
2016-Jan-31 20:33N 50°25' W 003°30'0 0.0
2016-Jan-31 19:33N 50°25' W 003°30'0 0.0
2016-Jan-31 18:33N 50°25' W 003°30'0 0.5
2016-Jan-31 17:33N 50°25' W 003°30'9 8.5
2016-Jan-31 16:33N 50°26' W 003°16'9 8.8
2016-Jan-31 15:33N 50°26' W 003°02'41 6.8
2016-Jan-31 09:33N 50°29' W 001°58'10 9.5
2016-Jan-31 08:31N 50°29' W 001°43'1410.9
2016-Jan-31 07:17N 50°28' W 001°22'911.8
2016-Jan-31 06:31N 50°27' W 001°08'1212.0
2016-Jan-31 05:33N 50°28' W 000°50'1210.9
2016-Jan-31 04:29N 50°29' W 000°31'18 9.1
2016-Jan-31 02:33N 50°32' W 000°04'7 7.1
2016-Jan-31 01:33N 50°33' E 000°07'6 6.2
2016-Jan-31 00:33N 50°35' E 000°16'6 6.3
2016-Jan-30 23:33N 50°37' E 000°26'7 6.8
2016-Jan-30 22:33N 50°40' E 000°36'9 9.1
2016-Jan-30 21:33N 50°45' E 000°47'1110.2
2016-Jan-30 20:26N 50°51' E 001°02'9 9.9
2016-Jan-30 19:33N 50°57' E 001°13'9 9.2
2016-Jan-30 18:33N 51°03' E 001°24'8 8.4
2016-Jan-30 17:33N 51°08' E 001°34'7 7.5
2016-Jan-30 16:33N 51°13' E 001°44'7 7.0
2016-Jan-30 15:33N 51°18' E 001°50'7 7.5
2016-Jan-30 14:33N 51°25' E 001°56'9 9.3
2016-Jan-30 13:33N 51°33' E 002°05'1110.9
2016-Jan-30 12:33N 51°43' E 002°12'20 9.9
2016-Jan-30 10:34N 52°02' E 002°09'2 2.4
2016-Jan-30 09:33N 52°04' E 002°07'2 2.3
2016-Jan-30 08:33N 52°04' E 002°10'8 8.0
2016-Jan-30 07:33N 52°10' E 002°03'8 7.7
2016-Jan-30 06:33N 52°17' E 001°56'7 6.6
2016-Jan-30 05:33N 52°22' E 001°50'5 4.7
2016-Jan-30 04:33N 52°27' E 001°52'5 5.0
2016-Jan-30 03:34N 52°32' E 001°53'6 5.5
2016-Jan-30 02:33N 52°37' E 001°56'1 0.9
2016-Jan-30 01:34N 52°36' E 001°55'7 6.7
2016-Jan-30 00:33N 52°29' E 001°53'6 6.3
2016-Jan-29 23:33N 52°23' E 001°50'7 6.9
2016-Jan-29 22:33N 52°16' E 001°52'7 7.4
2016-Jan-29 21:34N 52°10' E 001°57'9 8.6
2016-Jan-29 20:33N 52°03' E 002°06'20 9.1
2016-Jan-29 18:23N 51°44' E 002°01'910.9
2016-Jan-29 17:34N 51°38' E 001°50'1010.0
2016-Jan-29 16:34N 51°32' E 001°38'7 6.9
2016-Jan-29 15:33N 51°27' E 001°30'4 3.7
2016-Jan-29 14:33N 51°25' E 001°24'1 1.0
2016-Jan-29 13:33N 51°25' E 001°23'0 0.3
2016-Jan-29 12:34N 51°25' E 001°24'0 0.3
2016-Jan-29 11:34N 51°25' E 001°24'0 0.1
2016-Jan-29 10:33N 51°25' E 001°24'0 0.0
2016-Jan-29 09:33N 51°25' E 001°24'0 0.0
2016-Jan-29 08:33N 51°25' E 001°24'0 0.0
2016-Jan-29 07:33N 51°25' E 001°24'0 0.0
2016-Jan-29 06:33N 51°25' E 001°24'0 0.0
2016-Jan-29 05:33N 51°25' E 001°24'0 0.0
2016-Jan-29 04:33N 51°25' E 001°24'0 0.0
2016-Jan-29 03:33N 51°25' E 001°24'0 0.2
2016-Jan-29 02:33N 51°25' E 001°24'0 0.0
2016-Jan-29 01:33N 51°25' E 001°24'0 0.0
2016-Jan-29 00:33N 51°25' E 001°24'0 0.2
2016-Jan-28 23:33N 51°25' E 001°24'0 0.0
2016-Jan-28 22:33N 51°25' E 001°24'0 0.0
2016-Jan-28 21:33N 51°25' E 001°24'0 0.0
2016-Jan-28 20:33N 51°25' E 001°24'0 0.0
2016-Jan-28 19:33N 51°25' E 001°24'0 0.0
2016-Jan-28 18:33N 51°25' E 001°24'0 0.0
2016-Jan-28 17:34N 51°25' E 001°24'0 0.0
2016-Jan-28 16:33N 51°25' E 001°24'0 0.0
2016-Jan-28 15:31N 51°25' E 001°24'0 0.2
2016-Jan-28 14:33N 51°25' E 001°24'0 0.0
2016-Jan-28 13:33N 51°25' E 001°24'0 0.0
2016-Jan-28 12:33N 51°25' E 001°24'  

Dump ship's entire track history